createdAt,value
2024-05-09T00:00:36.264Z,88.97
2024-05-09T00:01:30.731Z,88.87
2024-05-09T00:02:30.775Z,88.92
2024-05-09T00:03:30.727Z,89.42
2024-05-09T00:04:30.675Z,88.92
2024-05-09T00:05:30.722Z,88.57
2024-05-09T00:06:30.649Z,89.01
2024-05-09T00:07:30.648Z,89.92
2024-05-09T00:08:30.826Z,89.42
2024-05-09T00:09:30.638Z,89.32
2024-05-09T00:10:36.113Z,89.92
2024-05-09T00:11:30.692Z,89.52
2024-05-09T00:12:30.741Z,88.92
2024-05-09T00:13:30.640Z,90.03
2024-05-09T00:14:30.750Z,90.63
2024-05-09T00:15:30.643Z,90.83
2024-05-09T00:16:30.635Z,91.08
2024-05-09T00:17:30.810Z,90.67
2024-05-09T00:18:30.697Z,91.08
2024-05-09T00:19:30.714Z,90.17
2024-05-09T00:20:38.207Z,90.17
2024-05-09T00:21:30.622Z,90.67
2024-05-09T00:22:30.627Z,90.37
2024-05-09T00:23:30.694Z,90.27
2024-05-09T00:24:30.620Z,91.08
2024-05-09T00:25:30.630Z,89.97
2024-05-09T00:26:30.727Z,90.27
2024-05-09T00:27:30.629Z,90.88
2024-05-09T00:28:30.631Z,90.58
2024-05-09T00:29:30.698Z,90.58
2024-05-09T00:30:35.224Z,90.78
2024-05-09T00:31:30.610Z,90.27
2024-05-09T00:32:30.768Z,91.38
2024-05-09T00:33:30.918Z,90.27
2024-05-09T00:34:30.685Z,90.88
2024-05-09T00:35:30.890Z,91.08
2024-05-09T00:36:30.607Z,91.08
2024-05-09T00:37:30.622Z,90.27
2024-05-09T00:38:30.747Z,91.08
2024-05-09T00:39:30.608Z,91.38
2024-05-09T00:40:38.277Z,91.58
2024-05-09T00:41:30.607Z,90.98
2024-05-09T00:42:30.606Z,91.99
2024-05-09T00:43:30.596Z,91.99
2024-05-09T00:44:30.692Z,91.69
2024-05-09T00:45:30.602Z,91.38
2024-05-09T00:46:30.590Z,91.99
2024-05-09T00:47:30.864Z,90.88
2024-05-09T00:48:30.816Z,91.08
2024-05-09T00:49:30.757Z,90.67
2024-05-09T00:50:36.131Z,91.18
2024-05-09T00:51:30.594Z,92.24
2024-05-09T00:52:30.586Z,91.32
2024-05-09T00:53:30.743Z,91.22
2024-05-09T00:54:30.578Z,91.49
2024-05-09T00:55:30.598Z,92.13
2024-05-09T00:56:30.618Z,91.73
2024-05-09T00:57:30.580Z,91.38
2024-05-09T00:58:30.610Z,91.49
2024-05-09T00:59:30.648Z,92.13
2024-05-09T01:00:35.892Z,91.42
2024-05-09T01:01:30.611Z,90.72
2024-05-09T01:02:30.635Z,91.53
2024-05-09T01:03:30.796Z,91.28
2024-05-09T01:04:30.603Z,91.12
2024-05-09T01:05:30.594Z,90.82
2024-05-09T01:06:30.564Z,90.92
2024-05-09T01:07:30.564Z,92.03
2024-05-09T01:08:30.767Z,90.72
2024-05-09T01:09:30.563Z,92.09
2024-05-09T01:10:34.648Z,91.53
2024-05-09T01:11:30.663Z,92.13
2024-05-09T01:12:30.715Z,91.02
2024-05-09T01:13:30.557Z,90.92
2024-05-09T01:14:30.679Z,92.24
2024-05-09T01:15:30.592Z,91.93
2024-05-09T01:16:30.560Z,91.22
2024-05-09T01:17:30.773Z,92.24
2024-05-09T01:18:30.763Z,91.73
2024-05-09T01:19:30.670Z,91.83
2024-05-09T01:20:37.528Z,91.32
2024-05-09T01:21:30.543Z,91.63
2024-05-09T01:22:30.539Z,91.63
2024-05-09T01:23:30.762Z,92.54
2024-05-09T01:24:30.579Z,91.97
2024-05-09T01:25:30.537Z,92.28
2024-05-09T01:26:30.652Z,91.57
2024-05-09T01:27:30.545Z,92.63
2024-05-09T01:28:30.540Z,91.92
2024-05-09T01:29:30.647Z,92.18
2024-05-09T01:30:34.552Z,92.08
2024-05-09T01:31:30.561Z,92.68
2024-05-09T01:32:30.722Z,92.18
2024-05-09T01:33:30.738Z,91.77
2024-05-09T01:34:30.521Z,92.42
2024-05-09T01:35:30.630Z,92.18
2024-05-09T01:36:30.533Z,92.32
2024-05-09T01:37:30.527Z,92.52
2024-05-09T01:38:30.664Z,92.08
2024-05-09T01:39:30.513Z,92.72
2024-05-09T01:41:30.569Z,92.32
2024-05-09T01:42:30.511Z,92.32
2024-05-09T01:43:30.832Z,92.22
2024-05-09T01:44:30.581Z,93.03
2024-05-09T01:45:30.517Z,93.13
2024-05-09T01:46:30.505Z,92.22
2024-05-09T01:47:30.843Z,92.02
2024-05-09T01:48:30.592Z,91.71
2024-05-09T01:49:30.618Z,92.52
2024-05-09T01:50:37.735Z,91.71
2024-05-09T01:51:30.494Z,92.32
2024-05-09T01:52:30.510Z,92.93
2024-05-09T01:53:30.595Z,91.92
2024-05-09T01:54:30.485Z,92.63
2024-05-09T01:55:30.812Z,92.12
2024-05-09T01:56:30.782Z,92.22
2024-05-09T01:57:30.496Z,92.63
2024-05-09T01:58:30.499Z,93.03
2024-05-09T01:59:30.514Z,92.12
2024-05-09T02:00:38.094Z,92.32
2024-05-09T02:01:30.605Z,92.47
2024-05-09T02:02:30.574Z,92.06
2024-05-09T02:03:30.637Z,92.77
2024-05-09T02:04:30.716Z,91.66
2024-05-09T02:05:30.503Z,92.77
2024-05-09T02:06:30.473Z,92.36
2024-05-09T02:07:30.556Z,92.57
2024-05-09T02:08:30.560Z,92.97
2024-05-09T02:09:30.466Z,92.77
2024-05-09T02:10:32.928Z,93.18
2024-05-09T02:11:30.527Z,92.93
2024-05-09T02:12:30.602Z,92.97
2024-05-09T02:13:30.458Z,92.26
2024-05-09T02:14:30.554Z,92.87
2024-05-09T02:15:30.451Z,92.22
2024-05-09T02:16:30.451Z,92.32
2024-05-09T02:17:30.675Z,93.03
2024-05-09T02:18:30.518Z,92.72
2024-05-09T02:19:30.551Z,92.72
2024-05-09T02:20:35.934Z,92.67
2024-05-09T02:21:30.453Z,92.36
2024-05-09T02:22:30.461Z,92.47
2024-05-09T02:23:30.536Z,92.36
2024-05-09T02:24:30.458Z,92.16
2024-05-09T02:25:30.479Z,92.26
2024-05-09T02:26:30.485Z,92.36
2024-05-09T02:27:30.445Z,91.96
2024-05-09T02:28:30.439Z,91.50
2024-05-09T02:29:30.497Z,92.06
2024-05-09T02:30:38.530Z,92.16
2024-05-09T02:31:30.429Z,92.06
2024-05-09T02:32:30.642Z,92.26
2024-05-09T02:33:30.677Z,92.16
2024-05-09T02:34:30.464Z,91.86
2024-05-09T02:35:30.528Z,92.36
2024-05-09T02:36:30.437Z,92.16
2024-05-09T02:37:30.418Z,91.55
2024-05-09T02:38:30.604Z,92.16
2024-05-09T02:39:30.436Z,92.06
2024-05-09T02:41:30.464Z,91.50
2024-05-09T02:42:30.410Z,91.75
2024-05-09T02:43:30.405Z,91.05
2024-05-09T02:44:30.502Z,91.05
2024-05-09T02:45:30.433Z,90.14
2024-05-09T02:46:30.403Z,91.25
2024-05-09T02:47:30.683Z,90.95
2024-05-09T02:48:30.502Z,90.84
2024-05-09T02:49:30.530Z,91.96
2024-05-09T02:50:37.371Z,92.26
2024-05-09T02:51:30.400Z,91.55
2024-05-09T02:52:30.601Z,91.96
2024-05-09T02:53:30.502Z,92.06
2024-05-09T02:54:30.392Z,91.60
2024-05-09T02:55:30.410Z,91.60
2024-05-09T02:56:30.466Z,91.90
2024-05-09T02:57:30.385Z,92.41
2024-05-09T02:58:30.384Z,91.39
2024-05-09T02:59:30.500Z,92.10
2024-05-09T03:00:37.944Z,92.21
2024-05-09T03:01:30.428Z,92.00
2024-05-09T03:02:30.508Z,92.10
2024-05-09T03:03:30.716Z,91.70
2024-05-09T03:04:30.416Z,92.00
2024-05-09T03:05:30.394Z,92.25
2024-05-09T03:06:30.367Z,91.50
2024-05-09T03:07:30.366Z,92.05
2024-05-09T03:08:30.441Z,91.90
2024-05-09T03:09:30.363Z,92.25
2024-05-09T03:10:35.688Z,92.35
2024-05-09T03:11:30.509Z,91.39
2024-05-09T03:12:30.371Z,91.64
2024-05-09T03:13:30.354Z,91.74
2024-05-09T03:14:30.411Z,92.14
2024-05-09T03:15:30.346Z,91.74
2024-05-09T03:16:30.351Z,91.34
2024-05-09T03:17:30.605Z,91.85
2024-05-09T03:18:30.444Z,91.74
2024-05-09T03:19:30.457Z,91.44
2024-05-09T03:20:33.836Z,91.34
2024-05-09T03:21:30.345Z,91.85
2024-05-09T03:22:30.335Z,91.74
2024-05-09T03:23:30.379Z,91.74
2024-05-09T03:24:30.338Z,91.94
2024-05-09T03:25:30.347Z,92.14
2024-05-09T03:26:30.404Z,92.14
2024-05-09T03:27:30.329Z,92.49
2024-05-09T03:28:30.349Z,92.35
2024-05-09T03:29:30.475Z,91.74
2024-05-09T03:30:39.170Z,91.74
2024-05-09T03:31:30.340Z,92.14
2024-05-09T03:32:30.475Z,92.40
2024-05-09T03:33:30.721Z,91.99
2024-05-09T03:34:30.340Z,92.09
2024-05-09T03:35:30.337Z,92.09
2024-05-09T03:36:30.316Z,91.99
2024-05-09T03:37:30.318Z,91.99
2024-05-09T03:38:30.360Z,92.70
2024-05-09T03:39:30.303Z,91.89
2024-05-09T03:40:31.163Z,91.38
2024-05-09T03:41:30.490Z,91.48
2024-05-09T03:42:30.303Z,91.99
2024-05-09T03:43:30.302Z,92.29
2024-05-09T03:44:30.462Z,92.29
2024-05-09T03:45:30.301Z,91.99
2024-05-09T03:46:30.291Z,92.40
2024-05-09T03:47:30.451Z,92.09
2024-05-09T03:48:30.320Z,92.54
2024-05-09T03:49:30.360Z,91.93
2024-05-09T03:50:35.225Z,92.74
2024-05-09T03:51:30.293Z,92.24
2024-05-09T03:52:30.286Z,92.13
2024-05-09T03:53:30.312Z,92.74
2024-05-09T03:54:30.280Z,91.99
2024-05-09T03:55:30.274Z,92.90
2024-05-09T03:56:30.365Z,92.80
2024-05-09T03:57:30.271Z,92.64
2024-05-09T03:58:30.268Z,93.35
2024-05-09T03:59:30.316Z,92.74
2024-05-09T04:00:36.920Z,92.24
2024-05-09T04:01:30.451Z,93.29
2024-05-09T04:02:30.423Z,92.74
2024-05-09T04:03:30.463Z,92.84
2024-05-09T04:04:30.350Z,93.15
2024-05-09T04:05:30.396Z,92.24
2024-05-09T04:06:30.264Z,92.64
2024-05-09T04:07:30.255Z,92.84
2024-05-09T04:08:30.292Z,92.64
2024-05-09T04:09:30.246Z,92.13
2024-05-09T04:10:33.677Z,91.89
2024-05-09T04:11:30.308Z,92.09
2024-05-09T04:12:30.294Z,92.29
2024-05-09T04:13:30.260Z,92.19
2024-05-09T04:14:30.340Z,92.49
2024-05-09T04:15:30.273Z,92.60
2024-05-09T04:16:30.231Z,91.58
2024-05-09T04:17:30.433Z,92.49
2024-05-09T04:18:30.350Z,92.19
2024-05-09T04:19:30.327Z,92.60
2024-05-09T04:20:37.470Z,92.70
2024-05-09T04:21:30.230Z,92.40
2024-05-09T04:22:30.222Z,92.55
2024-05-09T04:23:30.338Z,91.99
2024-05-09T04:24:30.216Z,92.05
2024-05-09T04:25:30.217Z,91.94
2024-05-09T04:26:30.340Z,92.45
2024-05-09T04:27:30.229Z,92.25
2024-05-09T04:28:30.224Z,92.19
2024-05-09T04:29:30.291Z,91.94
2024-05-09T04:30:36.931Z,92.25
2024-05-09T04:31:30.215Z,91.24
2024-05-09T04:32:30.348Z,91.85
2024-05-09T04:33:30.832Z,91.74
2024-05-09T04:34:30.310Z,91.60
2024-05-09T04:35:30.317Z,91.85
2024-05-09T04:36:30.195Z,92.05
2024-05-09T04:37:30.215Z,91.54
2024-05-09T04:38:30.306Z,91.13
2024-05-09T04:39:30.194Z,92.35
2024-05-09T04:40:34.271Z,93.16
2024-05-09T04:41:30.238Z,92.25
2024-05-09T04:42:30.185Z,93.06
2024-05-09T04:43:30.223Z,92.86
2024-05-09T04:44:30.239Z,92.14
2024-05-09T04:45:30.193Z,91.74
2024-05-09T04:46:30.167Z,92.65
2024-05-09T04:47:30.388Z,92.76
2024-05-09T04:48:30.275Z,92.25
2024-05-09T04:49:30.231Z,94.18
2024-05-09T04:50:36.618Z,92.96
2024-05-09T04:51:30.186Z,93.37
2024-05-09T04:52:30.157Z,93.26
2024-05-09T04:53:30.265Z,93.06
2024-05-09T04:54:36.026Z,92.65
2024-05-09T04:55:30.240Z,94.38
2024-05-09T04:56:30.225Z,93.32
2024-05-09T04:57:30.154Z,94.27
2024-05-09T04:58:30.151Z,93.62
2024-05-09T04:59:30.260Z,92.82
2024-05-09T05:00:36.045Z,94.03
2024-05-09T05:01:30.258Z,95.55
2024-05-09T05:02:30.231Z,94.13
2024-05-09T05:03:30.288Z,93.52
2024-05-09T05:04:30.242Z,92.61
2024-05-09T05:05:30.206Z,93.52
2024-05-09T05:06:30.159Z,93.22
2024-05-09T05:07:30.131Z,93.62
2024-05-09T05:08:30.179Z,94.09
2024-05-09T05:09:30.131Z,93.22
2024-05-09T05:10:35.740Z,93.38
2024-05-09T05:11:30.201Z,93.52
2024-05-09T05:12:30.238Z,94.43
2024-05-09T05:13:30.130Z,93.18
2024-05-09T05:14:30.257Z,93.62
2024-05-09T05:15:30.120Z,94.43
2024-05-09T05:16:30.388Z,94.54
2024-05-09T05:17:30.301Z,95.35
2024-05-09T05:18:30.196Z,94.43
2024-05-09T05:19:30.266Z,93.99
2024-05-09T05:20:33.643Z,95.45
2024-05-09T05:21:30.271Z,95.20
2024-05-09T05:22:30.106Z,95.10
2024-05-09T05:23:30.251Z,95.81
2024-05-09T05:24:30.095Z,94.09
2024-05-09T05:25:30.099Z,95.40
2024-05-09T05:26:30.164Z,94.45
2024-05-09T05:27:30.100Z,95.91
2024-05-09T05:28:30.089Z,94.45
2024-05-09T05:29:30.132Z,94.14
2024-05-09T05:30:34.498Z,94.24
2024-05-09T05:31:30.116Z,95.46
2024-05-09T05:32:30.240Z,94.75
2024-05-09T05:33:30.230Z,93.94
2024-05-09T05:34:30.076Z,93.33
2024-05-09T05:35:30.285Z,94.35
2024-05-09T05:36:30.076Z,94.75
2024-05-09T05:37:30.081Z,94.55
2024-05-09T05:38:30.110Z,94.45
2024-05-09T05:39:30.067Z,95.86
2024-05-09T05:40:36.284Z,95.36
2024-05-09T05:41:30.150Z,93.74
2024-05-09T05:42:30.066Z,94.00
2024-05-09T05:43:30.093Z,94.20
2024-05-09T05:44:30.122Z,95.26
2024-05-09T05:45:30.079Z,94.91
2024-05-09T05:46:30.065Z,94.20
2024-05-09T05:47:30.218Z,94.00
2024-05-09T05:48:30.135Z,94.40
2024-05-09T05:49:30.119Z,95.21
2024-05-09T05:50:35.556Z,95.07
2024-05-09T05:51:30.049Z,95.11
2024-05-09T05:52:30.042Z,95.11
2024-05-09T05:53:30.078Z,95.47
2024-05-09T05:54:30.068Z,95.37
2024-05-09T05:55:30.058Z,95.07
2024-05-09T05:56:30.082Z,93.65
2024-05-09T05:57:30.067Z,95.12
2024-05-09T05:58:30.049Z,94.51
2024-05-09T05:59:30.106Z,95.12
2024-05-09T06:00:37.476Z,95.32
2024-05-09T06:01:30.099Z,94.51
2024-05-09T06:02:30.136Z,95.02
2024-05-09T06:03:30.502Z,95.02
2024-05-09T06:04:30.104Z,95.12
2024-05-09T06:05:30.102Z,94.11
2024-05-09T06:06:30.022Z,95.02
2024-05-09T06:07:30.033Z,94.21
2024-05-09T06:08:30.636Z,95.02
2024-05-09T06:09:30.015Z,95.02
2024-05-09T06:10:37.584Z,94.78
2024-05-09T06:11:30.077Z,95.07
2024-05-09T06:12:30.065Z,95.07
2024-05-09T06:13:30.011Z,94.07
2024-05-09T06:14:30.227Z,95.07
2024-05-09T06:15:30.325Z,94.67
2024-05-09T06:16:30.019Z,94.23
2024-05-09T06:17:30.155Z,94.23
2024-05-09T06:18:30.426Z,93.36
2024-05-09T06:19:30.368Z,93.82
2024-05-09T06:20:35.364Z,93.82
2024-05-09T06:21:30.008Z,93.82
2024-05-09T06:22:30.042Z,94.02
2024-05-09T06:23:30.027Z,93.32
2024-05-09T06:24:29.997Z,93.27
2024-05-09T06:25:30.002Z,93.07
2024-05-09T06:26:30.098Z,94.08
2024-05-09T06:27:29.989Z,93.68
2024-05-09T06:28:29.993Z,92.97
2024-05-09T06:29:30.059Z,92.46
2024-05-09T06:30:37.205Z,92.57
2024-05-09T06:31:29.988Z,92.57
2024-05-09T06:32:30.102Z,92.97
2024-05-09T06:33:30.284Z,93.33
2024-05-09T06:34:30.153Z,93.73
2024-05-09T06:35:30.220Z,93.33
2024-05-09T06:36:29.998Z,92.62
2024-05-09T06:37:29.978Z,92.22
2024-05-09T06:38:30.053Z,93.23
2024-05-09T06:39:29.988Z,93.73
2024-05-09T06:40:36.738Z,93.63
2024-05-09T06:41:30.061Z,92.93
2024-05-09T06:42:29.966Z,93.18
2024-05-09T06:43:29.967Z,92.98
2024-05-09T06:44:30.116Z,93.08
2024-05-09T06:45:30.001Z,92.78
2024-05-09T06:46:29.998Z,93.38
2024-05-09T06:47:30.070Z,93.59
2024-05-09T06:48:30.189Z,93.34
2024-05-09T06:49:30.216Z,93.24
2024-05-09T06:50:35.785Z,92.94
2024-05-09T06:51:29.961Z,91.93
2024-05-09T06:52:29.983Z,92.33
2024-05-09T06:53:29.992Z,92.74
2024-05-09T06:54:29.960Z,92.74
2024-05-09T06:55:29.950Z,92.69
2024-05-09T06:56:30.116Z,92.99
2024-05-09T06:57:29.954Z,92.99
2024-05-09T06:58:29.948Z,92.09
2024-05-09T06:59:30.112Z,92.59
2024-05-09T07:00:35.631Z,92.45
2024-05-09T07:01:30.046Z,92.05
2024-05-09T07:02:30.058Z,90.84
2024-05-09T07:03:30.054Z,90.33
2024-05-09T07:04:30.032Z,91.85
2024-05-09T07:05:29.956Z,92.35
2024-05-09T07:06:29.946Z,91.85
2024-05-09T07:07:29.941Z,92.05
2024-05-09T07:08:29.982Z,91.64
2024-05-09T07:09:29.940Z,92.10
2024-05-09T07:10:34.825Z,91.50
2024-05-09T07:11:30.008Z,90.75
2024-05-09T07:12:30.184Z,91.55
2024-05-09T07:13:29.938Z,90.45
2024-05-09T07:14:30.280Z,91.61
2024-05-09T07:15:29.929Z,91.21
2024-05-09T07:16:29.931Z,91.47
2024-05-09T07:17:30.204Z,91.77
2024-05-09T07:18:30.130Z,90.82
2024-05-09T07:19:30.010Z,89.07
2024-05-09T07:20:34.510Z,88.83
2024-05-09T07:21:29.937Z,88.99
2024-05-09T07:22:29.958Z,88.30
2024-05-09T07:23:29.963Z,86.82
2024-05-09T07:24:29.956Z,85.93
2024-05-09T07:25:30.479Z,84.41
2024-05-09T07:26:30.032Z,83.29
2024-05-09T07:27:29.962Z,81.72
2024-05-09T07:28:29.928Z,79.31
2024-05-09T07:29:30.013Z,77.41
2024-05-09T07:30:33.597Z,77.20
2024-05-09T07:31:29.935Z,76.33
2024-05-09T07:32:30.112Z,73.58
2024-05-09T07:33:30.099Z,74.01
2024-05-09T07:34:30.014Z,73.08
2024-05-09T07:35:30.378Z,71.43
2024-05-09T07:36:29.945Z,70.21
2024-05-09T07:37:29.941Z,69.09
2024-05-09T07:38:29.959Z,69.02
2024-05-09T07:39:29.943Z,69.09
2024-05-09T07:40:35.643Z,67.15
2024-05-09T07:41:30.028Z,66.36
2024-05-09T07:42:29.961Z,67.61
2024-05-09T07:43:29.950Z,66.79
2024-05-09T07:44:30.115Z,66.89
2024-05-09T07:45:46.003Z,66.56
2024-05-09T07:47:36.966Z,65.94
2024-05-09T07:48:57.192Z,66.04
2024-05-09T07:50:01.200Z,64.86
2024-05-09T07:53:08.258Z,64.79
2024-05-09T07:53:32.604Z,65.06
2024-05-09T07:53:40.304Z,64.25
2024-05-09T07:54:30.210Z,65.19
2024-05-09T07:55:30.282Z,63.62
2024-05-09T07:56:30.548Z,64.41
2024-05-09T07:57:30.019Z,65.06
2024-05-09T07:58:30.007Z,63.17
2024-05-09T07:59:31.326Z,62.38
2024-05-09T08:00:31.830Z,63.14
2024-05-09T08:01:30.115Z,62.72
2024-05-09T08:02:30.211Z,61.93
2024-05-09T08:03:30.170Z,62.32
2024-05-09T08:04:30.136Z,61.83
2024-05-09T08:05:30.231Z,61.93
2024-05-09T08:06:30.103Z,62.72
2024-05-09T08:07:30.056Z,61.87
2024-05-09T08:08:30.493Z,62.45
2024-05-09T08:09:30.131Z,61.99
2024-05-09T08:10:30.097Z,61.80
2024-05-09T08:11:30.105Z,62.12
2024-05-09T08:12:30.118Z,63.01
2024-05-09T08:13:30.071Z,63.40
2024-05-09T08:14:30.094Z,63.20
2024-05-09T08:15:30.108Z,62.71
2024-05-09T08:16:30.123Z,61.96
2024-05-09T08:17:30.145Z,63.82
2024-05-09T08:18:30.467Z,62.84
2024-05-09T08:19:30.138Z,63.75
2024-05-09T08:20:33.709Z,62.77
2024-05-09T08:21:30.141Z,63.95
2024-05-09T08:22:30.102Z,61.89
2024-05-09T08:23:30.109Z,63.17
2024-05-09T08:24:30.169Z,63.00
2024-05-09T08:25:30.115Z,62.70
2024-05-09T08:26:30.117Z,64.28
2024-05-09T08:27:30.148Z,62.70
2024-05-09T08:28:30.185Z,62.60
2024-05-09T08:29:30.134Z,62.21
2024-05-09T08:30:36.332Z,62.63
2024-05-09T08:31:30.315Z,63.52
2024-05-09T08:32:30.253Z,63.03
2024-05-09T08:33:30.494Z,62.73
2024-05-09T08:34:30.269Z,63.59
2024-05-09T08:35:30.152Z,62.90
2024-05-09T08:36:30.224Z,63.49
2024-05-09T08:37:35.000Z,64.67
2024-05-09T08:38:30.178Z,64.25
2024-05-09T08:39:30.221Z,63.56
2024-05-09T08:40:34.482Z,61.99
2024-05-09T08:41:30.185Z,62.74
2024-05-09T08:42:30.212Z,61.63
2024-05-09T08:43:30.286Z,60.85
2024-05-09T08:44:30.223Z,60.65
2024-05-09T08:45:30.400Z,60.65
2024-05-09T08:46:30.355Z,61.05
2024-05-09T08:47:30.339Z,61.73
2024-05-09T08:48:30.594Z,60.95
2024-05-09T08:49:30.336Z,61.18
2024-05-09T08:50:37.712Z,63.92
2024-05-09T08:51:30.335Z,62.68
2024-05-09T08:52:30.246Z,60.21
2024-05-09T08:53:30.247Z,60.79
2024-05-09T08:54:30.353Z,60.69
2024-05-09T08:55:30.277Z,61.05
2024-05-09T08:56:30.279Z,60.14
2024-05-09T08:57:30.283Z,61.90
2024-05-09T08:58:30.277Z,59.98
2024-05-09T08:59:30.281Z,58.83
2024-05-09T09:00:36.563Z,59.28
2024-05-09T09:01:30.388Z,61.69
2024-05-09T09:02:30.510Z,63.42
2024-05-09T09:03:30.867Z,63.16
2024-05-09T09:04:30.506Z,62.70
2024-05-09T09:05:30.454Z,63.06
2024-05-09T09:06:30.395Z,64.76
2024-05-09T09:07:30.379Z,64.29
2024-05-09T09:08:30.337Z,63.73
2024-05-09T09:09:30.459Z,64.46
2024-05-09T09:10:32.391Z,64.78
2024-05-09T09:11:30.391Z,64.52
2024-05-09T09:12:30.458Z,65.54
2024-05-09T09:13:30.389Z,66.16
2024-05-09T09:14:30.367Z,68.24
2024-05-09T09:15:30.424Z,66.66
2024-05-09T09:16:30.416Z,66.39
2024-05-09T09:17:30.458Z,66.22
2024-05-09T09:18:31.039Z,66.62
2024-05-09T09:19:30.429Z,67.41
2024-05-09T09:20:36.355Z,67.21
2024-05-09T09:21:30.455Z,67.44
2024-05-09T09:22:30.410Z,67.54
2024-05-09T09:23:30.837Z,66.75
2024-05-09T09:24:30.440Z,66.39
2024-05-09T09:25:30.417Z,66.42
2024-05-09T09:26:30.430Z,65.06
2024-05-09T09:27:30.448Z,65.49
2024-05-09T09:28:30.427Z,66.82
2024-05-09T09:29:30.425Z,67.21
2024-05-09T09:30:36.740Z,68.40
2024-05-09T09:31:30.603Z,67.90
2024-05-09T09:32:30.609Z,69.36
2024-05-09T09:33:30.512Z,69.36
2024-05-09T09:34:30.642Z,69.85
2024-05-09T09:35:30.475Z,69.85
2024-05-09T09:36:30.487Z,69.23
2024-05-09T09:37:30.464Z,69.62
2024-05-09T09:38:30.461Z,68.90
2024-05-09T09:39:30.511Z,69.19
2024-05-09T09:40:32.962Z,69.69
2024-05-09T09:41:30.467Z,68.27
2024-05-09T09:42:30.525Z,67.28
2024-05-09T09:43:30.489Z,66.88
2024-05-09T09:44:30.478Z,65.40
2024-05-09T09:45:30.533Z,65.70
2024-05-09T09:46:30.525Z,67.47
2024-05-09T09:47:30.589Z,65.03
2024-05-09T09:48:30.867Z,64.64
2024-05-09T09:49:30.502Z,63.35
2024-05-09T09:50:34.482Z,64.77
2024-05-09T09:51:30.541Z,63.18
2024-05-09T09:52:30.520Z,63.88
2024-05-09T09:53:30.492Z,63.81
2024-05-09T09:54:30.558Z,65.49
2024-05-09T09:55:30.500Z,66.58
2024-05-09T09:56:30.530Z,66.78
2024-05-09T09:57:30.540Z,66.78
2024-05-09T09:58:30.576Z,67.08
2024-05-09T09:59:30.504Z,67.35
2024-05-09T10:00:33.254Z,66.58
2024-05-09T10:01:30.582Z,75.60
2024-05-09T10:02:30.694Z,75.63
2024-05-09T10:03:30.704Z,72.50
2024-05-09T10:04:30.635Z,72.20
2024-05-09T10:05:31.052Z,67.77
2024-05-09T10:06:30.610Z,68.57
2024-05-09T10:07:30.535Z,69.26
2024-05-09T10:08:30.516Z,70.06
2024-05-09T10:09:30.631Z,77.99
2024-05-09T10:10:32.887Z,73.93
2024-05-09T10:11:31.676Z,76.86
2024-05-09T10:12:30.622Z,74.62
2024-05-09T10:13:30.571Z,76.46
2024-05-09T10:14:30.535Z,75.67
2024-05-09T10:15:30.599Z,74.29
2024-05-09T10:16:30.598Z,73.93
2024-05-09T10:17:30.624Z,72.93
2024-05-09T10:18:32.756Z,74.72
2024-05-09T10:19:30.643Z,72.20
2024-05-09T10:21:30.606Z,70.72
2024-05-09T10:22:30.583Z,76.43
2024-05-09T10:23:30.627Z,72.27
2024-05-09T10:24:30.632Z,73.16
2024-05-09T10:25:30.607Z,72.86
2024-05-09T10:26:30.556Z,68.90
2024-05-09T10:27:30.688Z,70.58
2024-05-09T10:28:30.626Z,68.50
2024-05-09T10:29:30.559Z,68.70
2024-05-09T10:30:35.817Z,68.30
2024-05-09T10:31:30.600Z,67.41
2024-05-09T10:32:30.667Z,67.34
2024-05-09T10:33:30.800Z,66.82
2024-05-09T10:34:30.653Z,67.01
2024-05-09T10:35:30.564Z,67.87
2024-05-09T10:36:30.681Z,68.27
2024-05-09T10:37:30.695Z,66.98
2024-05-09T10:38:30.585Z,65.09
2024-05-09T10:39:30.615Z,66.68
2024-05-09T10:40:31.844Z,69.26
2024-05-09T10:41:30.599Z,66.65
2024-05-09T10:42:30.630Z,66.65
2024-05-09T10:43:30.659Z,65.26
2024-05-09T10:44:30.600Z,66.35
2024-05-09T10:45:30.628Z,66.32
2024-05-09T10:46:30.699Z,65.95
2024-05-09T10:47:30.633Z,67.31
2024-05-09T10:48:30.673Z,65.89
2024-05-09T10:49:30.610Z,66.29
2024-05-09T10:50:34.164Z,65.10
2024-05-09T10:51:30.643Z,65.50
2024-05-09T10:52:30.612Z,66.29
2024-05-09T10:53:30.626Z,63.71
2024-05-09T10:54:30.618Z,65.40
2024-05-09T10:55:30.638Z,67.38
2024-05-09T10:56:30.631Z,64.70
2024-05-09T10:57:30.649Z,64.70
2024-05-09T10:58:30.606Z,65.50
2024-05-09T10:59:30.604Z,66.78
2024-05-09T11:00:35.657Z,66.55
2024-05-09T11:01:30.686Z,67.74
2024-05-09T11:02:30.748Z,64.78
2024-05-09T11:03:30.790Z,64.78
2024-05-09T11:04:30.694Z,66.65
2024-05-09T11:05:30.701Z,65.07
2024-05-09T11:06:30.660Z,64.78
2024-05-09T11:07:30.738Z,65.47
2024-05-09T11:08:30.633Z,62.43
2024-05-09T11:09:30.674Z,64.11
2024-05-09T11:10:33.987Z,63.85
2024-05-09T11:11:30.649Z,63.85
2024-05-09T11:12:30.638Z,63.75
2024-05-09T11:13:30.819Z,66.22
2024-05-09T11:14:30.628Z,66.02
2024-05-09T11:15:30.736Z,63.35
2024-05-09T11:16:30.683Z,65.50
2024-05-09T11:17:30.767Z,66.29
2024-05-09T11:18:34.654Z,62.85
2024-05-09T11:19:30.698Z,62.39
2024-05-09T11:20:34.786Z,62.62
2024-05-09T11:21:30.655Z,63.21
2024-05-09T11:22:30.640Z,63.71
2024-05-09T11:23:31.047Z,65.59
2024-05-09T11:24:30.695Z,64.90
2024-05-09T11:25:30.651Z,67.57
2024-05-09T11:26:30.647Z,64.60
2024-05-09T11:27:30.666Z,66.06
2024-05-09T11:28:30.645Z,66.65
2024-05-09T11:29:30.658Z,65.76
2024-05-09T11:30:32.330Z,67.54
2024-05-09T11:31:30.726Z,67.74
2024-05-09T11:32:30.860Z,66.06
2024-05-09T11:33:30.776Z,67.44
2024-05-09T11:34:30.705Z,66.55
2024-05-09T11:35:30.673Z,65.06
2024-05-09T11:36:30.685Z,63.02
2024-05-09T11:37:31.340Z,64.20
2024-05-09T11:38:30.659Z,66.98
2024-05-09T11:39:30.694Z,66.39
2024-05-09T11:40:34.247Z,66.88
2024-05-09T11:41:30.672Z,66.78
2024-05-09T11:42:30.775Z,65.20
2024-05-09T11:43:30.854Z,67.38
2024-05-09T11:44:30.695Z,67.87
2024-05-09T11:45:30.717Z,64.90
2024-05-09T11:46:30.721Z,64.70
2024-05-09T11:47:30.736Z,63.42
2024-05-09T11:48:30.968Z,63.02
2024-05-09T11:49:30.849Z,62.92
2024-05-09T11:50:35.288Z,62.92
2024-05-09T11:51:30.722Z,64.11
2024-05-09T11:52:30.683Z,65.00
2024-05-09T11:53:30.687Z,66.35
2024-05-09T11:54:30.736Z,63.39
2024-05-09T11:55:30.891Z,65.83
2024-05-09T11:56:30.698Z,65.03
2024-05-09T11:57:30.731Z,65.10
2024-05-09T11:58:30.699Z,66.29
2024-05-09T11:59:30.703Z,67.54
2024-05-09T12:00:36.606Z,67.14
2024-05-09T12:01:30.838Z,67.32
2024-05-09T12:02:30.843Z,66.42
2024-05-09T12:03:30.884Z,67.58
2024-05-09T12:04:30.809Z,66.29
2024-05-09T12:05:30.836Z,66.46
2024-05-09T12:06:30.795Z,64.88
2024-05-09T12:07:30.732Z,66.66
2024-05-09T12:08:30.721Z,66.33
2024-05-09T12:09:30.760Z,63.37
2024-05-09T12:10:33.861Z,64.15
2024-05-09T12:11:30.799Z,62.97
2024-05-09T12:12:30.774Z,64.25
2024-05-09T12:13:30.768Z,65.14
2024-05-09T12:14:30.727Z,65.73
2024-05-09T12:15:30.756Z,66.63
2024-05-09T12:16:30.792Z,62.97
2024-05-09T12:17:30.916Z,61.00
2024-05-09T12:18:30.851Z,62.18
2024-05-09T12:19:30.760Z,62.68
2024-05-09T12:21:30.795Z,62.74
2024-05-09T12:22:30.755Z,62.25
2024-05-09T12:23:30.744Z,62.68
2024-05-09T12:24:30.806Z,62.98
2024-05-09T12:25:30.750Z,63.44
2024-05-09T12:26:30.747Z,62.52
2024-05-09T12:27:30.768Z,62.59
2024-05-09T12:28:30.787Z,62.53
2024-05-09T12:29:30.757Z,61.25
2024-05-09T12:30:36.717Z,59.26
2024-05-09T12:31:30.863Z,60.76
2024-05-09T12:32:30.889Z,61.16
2024-05-09T12:33:30.863Z,58.67
2024-05-09T12:34:30.846Z,59.55
2024-05-09T12:35:30.777Z,60.44
2024-05-09T12:36:30.857Z,60.41
2024-05-09T12:37:30.783Z,60.80
2024-05-09T12:38:30.781Z,60.28
2024-05-09T12:39:30.877Z,60.38
2024-05-09T12:40:35.871Z,58.81
2024-05-09T12:41:30.797Z,60.64
2024-05-09T12:42:33.260Z,60.42
2024-05-09T12:43:30.887Z,60.42
2024-05-09T12:44:30.805Z,58.85
2024-05-09T12:45:30.951Z,59.24
2024-05-09T12:46:30.895Z,60.03
2024-05-09T12:47:30.881Z,60.78
2024-05-09T12:48:30.906Z,59.11
2024-05-09T12:49:30.970Z,58.23
2024-05-09T12:50:33.367Z,58.43
2024-05-09T12:51:30.831Z,57.25
2024-05-09T12:52:30.828Z,58.43
2024-05-09T12:53:30.841Z,58.62
2024-05-09T12:54:30.866Z,58.33
2024-05-09T12:55:37.242Z,58.72
2024-05-09T12:56:30.852Z,58.33
2024-05-09T12:57:30.898Z,58.50
2024-05-09T12:58:30.835Z,58.69